createdAt,value
2022-11-18T00:16:10.604Z,13.17
2022-11-18T00:19:27.972Z,13.62
2022-11-18T00:27:08.947Z,12.00
2022-11-18T00:30:17.751Z,14.68
2022-11-18T00:33:25.960Z,14.57
2022-11-18T00:36:34.368Z,15.75
2022-11-18T00:39:42.950Z,17.48
2022-11-18T00:42:51.400Z,15.27
2022-11-18T00:45:59.973Z,15.18
2022-11-18T00:49:09.765Z,14.70
2022-11-18T01:14:59.976Z,15.38
2022-11-18T01:18:15.025Z,15.23
2022-11-18T01:25:29.076Z,12.60
2022-11-18T01:28:44.976Z,13.45
2022-11-18T01:32:24.484Z,13.98
2022-11-18T01:59:05.967Z,14.87
2022-11-18T02:02:37.301Z,15.17
2022-11-18T02:05:55.111Z,18.30
2022-11-18T02:09:11.101Z,20.85
2022-11-18T02:20:20.215Z,21.17
2022-11-18T02:23:58.079Z,20.42
2022-11-18T02:28:23.148Z,22.33
2022-11-18T02:36:19.780Z,18.77
2022-11-18T02:47:08.203Z,16.98
2022-11-18T02:50:28.952Z,17.30
2022-11-18T02:54:17.464Z,18.50
2022-11-18T02:57:33.600Z,16.97
2022-11-18T03:04:48.044Z,18.55
2022-11-18T03:08:10.836Z,17.67
2022-11-18T03:16:11.999Z,15.83
2022-11-18T03:19:44.036Z,16.62
2022-11-18T03:23:17.679Z,19.15
2022-11-18T03:26:40.024Z,18.52
2022-11-18T03:29:57.543Z,17.60
2022-11-18T03:37:40.983Z,16.33
2022-11-18T03:56:54.114Z,17.17
2022-11-18T04:00:07.652Z,15.82
2022-11-18T04:07:46.112Z,18.27
2022-11-18T04:15:37.397Z,17.73
2022-11-18T04:18:53.979Z,17.67
2022-11-18T04:37:03.080Z,16.80
2022-11-18T04:40:05.676Z,16.52
2022-11-18T04:43:22.053Z,16.30
2022-11-18T04:46:23.849Z,15.97
2022-11-18T04:49:41.031Z,16.17
2022-11-18T04:52:42.736Z,15.82
2022-11-18T04:55:57.002Z,15.85
2022-11-18T04:59:00.400Z,15.88
2022-11-18T05:06:18.440Z,16.00
2022-11-18T05:09:34.057Z,16.12
2022-11-18T05:16:47.280Z,15.40
2022-11-18T05:20:24.761Z,16.37
2022-11-18T05:23:46.055Z,17.37
2022-11-18T05:27:17.785Z,15.30
2022-11-18T05:30:26.063Z,15.45
2022-11-18T05:33:49.214Z,16.33
2022-11-18T05:37:11.018Z,14.70
2022-11-18T05:40:12.964Z,14.57
2022-11-18T05:44:12.289Z,15.75
2022-11-18T05:58:10.060Z,16.55
2022-11-18T07:15:44.092Z,12.55
2022-11-18T07:19:35.980Z,11.80
2022-11-18T07:50:01.776Z,12.30
2022-11-18T08:36:42.071Z,11.15
2022-11-18T08:40:08.019Z,10.95
2022-11-18T08:43:41.466Z,9.73
2022-11-18T08:59:31.789Z,9.60
2022-11-18T09:02:59.329Z,9.27
2022-11-18T09:07:12.835Z,10.02
2022-11-18T09:39:03.108Z,9.32
2022-11-18T09:58:22.878Z,10.75
2022-11-18T10:17:41.022Z,9.10
2022-11-18T10:46:01.272Z,9.10
2022-11-18T10:54:26.214Z,9.90
2022-11-18T11:49:32.302Z,5.22
2022-11-18T12:24:38.527Z,6.78
2022-11-18T12:28:06.115Z,5.20
2022-11-18T12:32:33.873Z,6.37
2022-11-18T12:36:15.250Z,5.78
2022-11-18T12:39:53.539Z,5.37
2022-11-18T12:43:33.122Z,5.00
2022-11-18T12:46:53.781Z,4.93
2022-11-18T12:50:15.511Z,4.32
2022-11-18T12:53:44.460Z,5.18
2022-11-18T12:56:53.834Z,4.37
2022-11-18T13:00:03.107Z,5.40
2022-11-18T13:07:17.159Z,5.05
2022-11-18T13:15:00.977Z,5.23
2022-11-18T13:19:05.302Z,5.05
2022-11-18T13:23:00.561Z,4.68
2022-11-18T13:26:35.165Z,4.82
2022-11-18T13:29:54.415Z,5.30
2022-11-18T13:33:18.100Z,4.47
2022-11-18T13:36:26.790Z,3.20
2022-11-18T13:39:41.058Z,3.62
2022-11-18T13:42:50.048Z,4.05
2022-11-18T13:46:10.461Z,4.35
2022-11-18T13:49:20.555Z,4.43
2022-11-18T13:52:48.171Z,3.62
2022-11-18T13:56:08.959Z,4.60
2022-11-18T13:59:41.123Z,4.93
2022-11-18T14:02:42.934Z,4.57
2022-11-18T14:13:54.147Z,5.05
2022-11-18T14:17:21.149Z,5.57
2022-11-18T14:20:32.021Z,6.22
2022-11-18T14:36:18.153Z,4.97
2022-11-18T14:39:29.486Z,5.12
2022-11-18T14:47:13.134Z,5.80
2022-11-18T14:50:49.671Z,6.65
2022-11-18T15:01:47.653Z,7.63
2022-11-18T15:05:23.173Z,7.28
2022-11-18T15:08:38.166Z,6.70
2022-11-18T15:11:41.709Z,9.05
2022-11-18T15:15:25.101Z,7.60
2022-11-18T15:18:26.800Z,7.43
2022-11-18T15:25:12.102Z,6.82
2022-11-18T15:28:20.805Z,6.78
2022-11-18T15:31:30.504Z,6.45
2022-11-18T15:34:48.477Z,5.87
2022-11-18T15:38:03.314Z,6.35
2022-11-18T15:41:26.043Z,6.82
2022-11-18T15:44:41.130Z,6.62
2022-11-18T15:55:46.109Z,6.05
2022-11-18T15:59:04.125Z,6.65
2022-11-18T16:18:31.146Z,8.20
2022-11-18T16:22:18.146Z,8.55
2022-11-18T16:25:33.194Z,9.77
2022-11-18T16:28:41.146Z,9.20
2022-11-18T16:39:49.138Z,9.18
2022-11-18T16:43:59.657Z,9.85
2022-11-18T16:55:18.255Z,10.32
2022-11-18T16:58:26.705Z,10.60
2022-11-18T17:05:18.132Z,10.63
2022-11-18T17:08:26.729Z,11.00
2022-11-18T17:15:21.634Z,10.63
2022-11-18T17:18:30.204Z,10.95
2022-11-18T17:22:14.765Z,10.00
2022-11-18T17:25:29.582Z,11.23
2022-11-18T17:28:45.160Z,10.90
2022-11-18T17:31:47.842Z,9.70
2022-11-18T17:35:09.102Z,9.80
2022-11-18T17:38:17.773Z,10.07
2022-11-18T17:41:37.405Z,8.82
2022-11-18T17:44:41.159Z,9.65
2022-11-18T17:47:56.143Z,9.70
2022-11-18T17:51:05.838Z,9.43
2022-11-18T17:54:40.134Z,9.07
2022-11-18T17:57:41.854Z,9.80
2022-11-18T18:04:31.330Z,8.25
2022-11-18T18:08:06.145Z,8.15
2022-11-18T18:11:35.687Z,9.63
2022-11-18T18:15:16.155Z,10.63
2022-11-18T18:18:24.742Z,9.38
2022-11-18T18:21:59.078Z,9.80
2022-11-18T18:25:07.256Z,10.13
2022-11-18T18:28:15.561Z,10.57
2022-11-18T18:35:10.011Z,9.32
2022-11-18T18:38:18.127Z,9.98
2022-11-18T18:49:12.273Z,10.38
2022-11-18T18:52:20.669Z,9.77
2022-11-18T18:55:36.509Z,10.27
2022-11-18T18:58:46.954Z,8.02
2022-11-18T19:02:19.180Z,9.20
2022-11-18T19:05:33.364Z,9.63
2022-11-18T19:08:56.394Z,9.32
2022-11-18T19:12:09.136Z,10.18
2022-11-18T19:15:45.221Z,9.82
2022-11-18T19:18:46.878Z,10.27
2022-11-18T19:22:26.204Z,10.10
2022-11-18T19:25:35.349Z,9.45
2022-11-18T19:28:43.174Z,10.25
2022-11-18T19:32:16.915Z,10.10
2022-11-18T19:35:31.166Z,10.20
2022-11-18T19:38:32.958Z,11.38
2022-11-18T19:49:32.334Z,10.60
2022-11-18T19:52:47.253Z,9.13
2022-11-18T20:00:03.237Z,10.25
2022-11-18T20:03:45.240Z,9.82
2022-11-18T20:06:46.861Z,7.95
2022-11-18T20:10:01.377Z,6.60
2022-11-18T20:13:12.184Z,7.20
2022-11-18T20:16:23.370Z,7.43
2022-11-18T20:19:31.214Z,5.93
2022-11-18T20:22:42.016Z,6.15
2022-11-18T20:25:51.162Z,6.70
2022-11-18T20:29:07.202Z,5.95
2022-11-18T20:32:24.190Z,5.82
2022-11-18T20:36:10.386Z,5.78
2022-11-18T20:39:23.309Z,5.70
2022-11-18T20:42:57.489Z,4.57
2022-11-18T20:46:06.242Z,3.78
2022-11-18T20:49:14.779Z,4.78
2022-11-18T20:52:27.493Z,3.83
2022-11-18T20:59:56.299Z,4.60
2022-11-18T21:03:22.248Z,4.05
2022-11-18T21:06:32.177Z,3.87
2022-11-18T21:09:40.222Z,3.72
2022-11-18T21:12:48.829Z,4.30
2022-11-18T21:16:03.275Z,3.20
2022-11-18T21:19:12.222Z,3.05
2022-11-18T21:22:28.975Z,3.42
2022-11-18T21:25:30.775Z,3.08
2022-11-18T21:28:48.147Z,3.10
2022-11-18T21:36:21.530Z,2.72
2022-11-18T21:39:36.458Z,2.70
2022-11-18T21:47:10.285Z,3.37
2022-11-18T21:50:23.510Z,3.43
2022-11-18T21:58:03.988Z,3.47
2022-11-18T22:05:37.292Z,3.28
2022-11-18T22:08:47.753Z,3.77
2022-11-18T22:16:20.489Z,3.80
2022-11-18T22:19:28.818Z,3.72
2022-11-18T22:23:08.277Z,3.72
2022-11-18T22:26:24.018Z,3.50
2022-11-18T22:29:59.243Z,4.20
2022-11-18T22:49:05.736Z,4.55
2022-11-18T23:08:49.109Z,4.80
2022-11-18T23:12:52.143Z,4.82
2022-11-18T23:16:36.134Z,5.12
2022-11-18T23:19:51.282Z,5.25
2022-11-18T23:22:59.734Z,5.43
2022-11-18T23:26:14.102Z,5.30
2022-11-18T23:29:25.696Z,5.05
2022-11-18T23:53:26.273Z,5.78
2022-11-18T23:56:48.144Z,5.67
2022-11-18T23:59:56.117Z,6.20
